首页
METAR-TAF:

METAR-TAF

机场 :

Dyersburg, 田纳西州, 美国

纬度: 36-00N, 经度: 089-24W, 海拔: 103米

当前天气观测

该预报发布于7分钟前的05:56 UTC
风速10节,风向西转西北
温度 8°C
湿度 100%
气压 1007 hPa
能見度: 11.3公里
阴天层高于200英尺

METAR: KDYR 260556Z AUTO 29010KT 7SM OVC002 08/08 A2973 RMK AO2 RAE0457 SLP074 6//// T00830083 10156 20083 401560078 53023 PNO $

时间: 00:03 (06:03 UTC)


TAF: 丢失

超过4000个机场的气象观测和天气预报(METAR&TAF报告)。

可查询的气象台以黄色和红色小点在地图上表示。

将鼠标移到小点上方,可查看气象台名称。

然后点击查看天气观测和预报。

如需切换地图:点击带黑十字的绿色按钮放大地图;点击带横线的绿色按钮缩小地图;或者点击绿色箭头查看邻近地区的地图。


METAR-TAF: